Time,TemperatureF,DewpointF,PressureIn,WindDirection,WindDirectionDegrees,WindSpeedMPH,WindSpeedGustMPH,Humidity,HourlyPrecipIn,Conditions,Clouds,dailyrainin,SolarRadiationWatts/m^2,SoftwareType,DateUTC
2013-01-07 00:02:00,35.4,35.2,30.04,West,263,0.0,0.0,99,0.00,,,0.30,0.0,meteohub,2013-01-07 08:02:00,
2013-01-07 00:07:00,35.4,35.2,30.04,West,263,0.0,0.0,99,0.00,,,0.00,0.0,meteohub,2013-01-07 08:07:00,
2013-01-07 00:12:00,35.4,35.2,30.04,West,263,1.0,0.0,99,0.00,,,0.00,0.0,meteohub,2013-01-07 08:12:00,
2013-01-07 00:17:00,35.2,35.1,30.04,West,263,0.0,2.0,99,0.00,,,0.00,0.0,meteohub,2013-01-07 08:17:00,
2013-01-07 00:22:00,35.2,35.1,30.04,West,263,0.0,2.0,99,0.00,,,0.00,0.0,meteohub,2013-01-07 08:22:00,
2013-01-07 00:27:00,35.2,35.1,30.04,West,263,0.0,2.0,99,0.00,,,0.00,0.0,meteohub,2013-01-07 08:27:00,
2013-01-07 00:32:00,35.2,35.1,30.04,West,263,0.0,2.0,99,0.00,,,0.00,0.0,meteohub,2013-01-07 08:32:00,
2013-01-07 00:37:00,35.1,34.9,30.03,West,263,0.0,1.0,99,0.00,,,0.00,0.0,meteohub,2013-01-07 08:37:00,
2013-01-07 00:42:00,35.1,34.9,30.04,West,263,0.0,1.0,99,0.00,,,0.00,0.0,meteohub,2013-01-07 08:42:00,
2013-01-07 00:47:00,35.1,34.9,30.03,West,263,0.0,1.0,99,0.00,,,0.00,0.0,meteohub,2013-01-07 08:47:00,
2013-01-07 00:52:00,35.2,35.1,30.03,West,263,0.0,1.0,99,0.00,,,0.00,0.0,meteohub,2013-01-07 08:52:00,
2013-01-07 00:57:00,35.2,35.1,30.03,West,263,0.0,0.0,99,0.00,,,0.00,0.0,meteohub,2013-01-07 08:57:00,
2013-01-07 01:02:00,35.2,35.1,30.01,West,263,0.0,0.0,99,0.00,,,0.00,0.0,meteohub,2013-01-07 09:02:00,
2013-01-07 01:07:00,35.2,35.1,30.01,West,263,1.0,1.0,99,0.00,,,0.00,0.0,meteohub,2013-01-07 09:07:00,
2013-01-07 01:12:00,35.1,34.9,30.01,West,263,0.0,1.0,99,0.00,,,0.00,0.0,meteohub,2013-01-07 09:12:00,
2013-01-07 01:17:00,34.9,34.7,30.01,West,263,0.0,2.0,99,0.00,,,0.00,0.0,meteohub,2013-01-07 09:17:00,
2013-01-07 01:22:00,34.9,34.7,30.01,West,263,0.0,2.0,99,0.00,,,0.00,0.0,meteohub,2013-01-07 09:22:00,
2013-01-07 01:27:00,34.9,34.7,30.01,West,263,0.0,1.0,99,0.00,,,0.00,0.0,meteohub,2013-01-07 09:27:00,
2013-01-07 01:32:00,34.9,34.7,30.02,West,263,0.0,1.0,99,0.00,,,0.00,0.0,meteohub,2013-01-07 09:32:00,
2013-01-07 01:37:00,35.1,34.9,30.01,West,263,0.0,1.0,99,0.00,,,0.00,0.0,meteohub,2013-01-07 09:37:00,
2013-01-07 01:42:00,35.1,34.9,30.01,West,263,0.0,1.0,99,0.00,,,0.00,0.0,meteohub,2013-01-07 09:42:00,
2013-01-07 01:47:00,35.1,34.9,30.01,West,263,0.0,0.0,99,0.00,,,0.00,0.0,meteohub,2013-01-07 09:47:00,
2013-01-07 01:53:00,35.1,34.9,30.01,West,263,0.0,0.0,99,0.00,,,0.00,0.0,meteohub,2013-01-07 09:53:00,
2013-01-07 01:58:00,35.1,34.9,30.01,West,263,0.0,0.0,99,0.00,,,0.00,0.0,meteohub,2013-01-07 09:58:00,
2013-01-07 02:03:00,34.9,34.7,30.01,West,263,0.0,1.0,99,0.01,,,0.01,0.0,meteohub,2013-01-07 10:03:00,
2013-01-07 02:08:00,34.9,34.7,30.01,West,263,0.0,1.0,99,0.01,,,0.01,0.0,meteohub,2013-01-07 10:08:00,
2013-01-07 02:13:00,34.9,34.7,30.02,West,263,0.0,1.0,99,0.01,,,0.01,0.0,meteohub,2013-01-07 10:13:00,
2013-01-07 02:18:00,34.9,34.7,30.01,West,263,0.0,1.0,99,0.01,,,0.01,0.0,meteohub,2013-01-07 10:18:00,
2013-01-07 02:23:00,35.1,34.9,30.01,West,263,0.0,1.0,99,0.01,,,0.01,0.0,meteohub,2013-01-07 10:23:00,
2013-01-07 02:28:00,35.1,34.9,30.00,West,263,0.0,0.0,99,0.01,,,0.01,0.0,meteohub,2013-01-07 10:28:00,
2013-01-07 02:33:00,35.1,34.9,30.00,West,263,0.0,0.0,99,0.01,,,0.01,0.0,meteohub,2013-01-07 10:33:00,
2013-01-07 02:38:00,34.9,34.7,30.00,West,263,0.0,0.0,99,0.02,,,0.02,0.0,meteohub,2013-01-07 10:38:00,
2013-01-07 02:43:00,34.9,34.7,30.00,West,263,0.0,2.0,99,0.02,,,0.02,0.0,meteohub,2013-01-07 10:43:00,
2013-01-07 02:48:00,34.9,34.7,30.00,West,263,1.0,2.0,99,0.02,,,0.02,0.0,meteohub,2013-01-07 10:48:00,
2013-01-07 02:53:00,34.7,34.5,29.99,West,263,0.0,2.0,99,0.02,,,0.02,0.0,meteohub,2013-01-07 10:53:00,
2013-01-07 02:58:00,34.7,34.5,30.00,West,263,0.0,2.0,99,0.02,,,0.02,0.0,meteohub,2013-01-07 10:58:00,
2013-01-07 03:03:00,34.5,34.3,30.00,West,263,0.0,1.0,99,0.02,,,0.03,0.0,meteohub,2013-01-07 11:03:00,
2013-01-07 03:08:00,34.5,34.3,29.99,West,263,0.0,1.0,99,0.02,,,0.03,0.0,meteohub,2013-01-07 11:08:00,
2013-01-07 03:13:00,34.7,34.5,29.99,West,263,0.0,0.0,99,0.02,,,0.03,0.0,meteohub,2013-01-07 11:13:00,
2013-01-07 03:18:00,34.7,34.5,29.99,West,263,0.0,0.0,99,0.02,,,0.03,0.0,meteohub,2013-01-07 11:18:00,
2013-01-07 03:23:00,34.7,34.5,29.99,West,263,0.0,0.0,99,0.03,,,0.04,0.0,meteohub,2013-01-07 11:23:00,
2013-01-07 03:28:00,34.9,34.7,29.98,West,263,0.0,0.0,99,0.03,,,0.04,0.0,meteohub,2013-01-07 11:28:00,
2013-01-07 03:33:00,34.7,34.5,29.97,West,263,0.0,0.0,99,0.03,,,0.04,0.0,meteohub,2013-01-07 11:33:00,
2013-01-07 03:38:00,34.7,34.5,29.97,West,263,0.0,0.0,99,0.02,,,0.04,0.0,meteohub,2013-01-07 11:38:00,
2013-01-07 03:43:00,34.7,34.5,29.97,West,263,0.0,0.0,99,0.03,,,0.05,0.0,meteohub,2013-01-07 11:43:00,
2013-01-07 03:49:00,34.5,34.3,29.96,West,263,0.0,1.0,99,0.03,,,0.05,0.0,meteohub,2013-01-07 11:49:00,
2013-01-07 03:54:00,34.5,34.3,29.96,West,263,1.0,2.0,99,0.03,,,0.05,0.0,meteohub,2013-01-07 11:54:00,
2013-01-07 03:59:00,34.3,34.2,29.96,West,263,0.0,2.0,99,0.03,,,0.05,0.0,meteohub,2013-01-07 11:59:00,
2013-01-07 04:04:00,34.3,34.2,29.96,West,263,0.0,2.0,99,0.03,,,0.06,0.0,meteohub,2013-01-07 12:04:00,
2013-01-07 04:09:00,34.3,34.2,29.95,West,263,0.0,2.0,99,0.03,,,0.06,0.0,meteohub,2013-01-07 12:09:00,
2013-01-07 04:14:00,34.3,34.2,29.95,West,263,0.0,1.0,99,0.03,,,0.06,0.0,meteohub,2013-01-07 12:14:00,
2013-01-07 04:19:00,34.2,34.0,29.95,West,263,0.0,1.0,99,0.04,,,0.07,0.0,meteohub,2013-01-07 12:19:00,
2013-01-07 04:24:00,34.0,33.8,29.94,West,263,0.0,1.0,99,0.03,,,0.07,0.0,meteohub,2013-01-07 12:24:00,
2013-01-07 04:29:00,33.8,33.6,29.94,West,263,0.0,1.0,99,0.03,,,0.07,0.0,meteohub,2013-01-07 12:29:00,
2013-01-07 04:34:00,33.6,33.4,29.94,West,263,0.0,1.0,99,0.04,,,0.08,0.0,meteohub,2013-01-07 12:34:00,
2013-01-07 04:39:00,33.6,33.4,29.94,West,263,0.0,1.0,99,0.03,,,0.08,0.0,meteohub,2013-01-07 12:39:00,
2013-01-07 04:44:00,33.4,33.3,29.94,West,263,0.0,0.0,99,0.03,,,0.08,0.0,meteohub,2013-01-07 12:44:00,
2013-01-07 04:49:00,33.4,33.3,29.93,West,263,0.0,0.0,99,0.04,,,0.09,0.0,meteohub,2013-01-07 12:49:00,
2013-01-07 04:54:00,33.4,33.3,29.93,West,263,0.0,0.0,99,0.05,,,0.10,0.0,meteohub,2013-01-07 12:54:00,
2013-01-07 04:59:00,33.4,33.3,29.92,West,263,0.0,0.0,99,0.05,,,0.10,0.0,meteohub,2013-01-07 12:59:00,
2013-01-07 05:04:00,33.3,33.1,29.92,West,263,0.0,0.0,99,0.05,,,0.11,0.0,meteohub,2013-01-07 13:04:00,
2013-01-07 05:09:00,33.3,33.1,29.92,West,263,0.0,0.0,99,0.05,,,0.11,0.0,meteohub,2013-01-07 13:09:00,
2013-01-07 05:14:00,33.1,32.9,29.92,West,263,0.0,0.0,99,0.05,,,0.11,0.0,meteohub,2013-01-07 13:14:00,
2013-01-07 05:19:00,33.1,32.9,29.92,West,263,0.0,0.0,99,0.05,,,0.12,0.0,meteohub,2013-01-07 13:19:00,
2013-01-07 05:25:00,32.9,32.7,29.91,West,263,0.0,0.0,99,0.06,,,0.13,0.0,meteohub,2013-01-07 13:25:00,
2013-01-07 05:30:00,32.9,32.7,29.91,West,263,0.0,0.0,99,0.06,,,0.13,0.0,meteohub,2013-01-07 13:30:00,
2013-01-07 05:35:00,32.9,32.7,29.91,West,263,0.0,0.0,99,0.06,,,0.14,0.0,meteohub,2013-01-07 13:35:00,
2013-01-07 05:40:00,32.7,32.5,29.91,West,263,0.0,0.0,99,0.07,,,0.15,0.0,meteohub,2013-01-07 13:40:00,
2013-01-07 05:45:00,32.7,32.2,29.91,West,263,0.0,0.0,98,0.07,,,0.16,0.0,meteohub,2013-01-07 13:45:00,
2013-01-07 05:50:00,32.7,32.5,29.91,West,263,0.0,0.0,99,0.08,,,0.17,0.0,meteohub,2013-01-07 13:50:00,
2013-01-07 05:55:00,32.7,32.5,29.91,West,263,0.0,0.0,99,0.07,,,0.19,0.0,meteohub,2013-01-07 13:55:00,
2013-01-07 06:00:00,32.7,32.5,29.90,West,263,0.0,0.0,99,0.08,,,0.19,0.0,meteohub,2013-01-07 14:00:00,
2013-01-07 06:05:00,32.7,32.5,29.91,West,263,0.0,0.0,99,0.10,,,0.21,0.0,meteohub,2013-01-07 14:05:00,
2013-01-07 06:10:00,32.7,32.2,29.91,West,263,0.0,0.0,98,0.10,,,0.22,0.0,meteohub,2013-01-07 14:10:00,
2013-01-07 06:15:00,32.7,32.2,29.90,West,263,0.0,0.0,98,0.10,,,0.23,0.0,meteohub,2013-01-07 14:15:00,
2013-01-07 06:20:00,32.5,32.0,29.90,West,263,0.0,0.0,98,0.11,,,0.24,0.0,meteohub,2013-01-07 14:20:00,
2013-01-07 06:25:00,32.5,32.4,29.91,West,263,0.0,0.0,99,0.12,,,0.25,0.0,meteohub,2013-01-07 14:25:00,
2013-01-07 06:30:00,32.5,32.0,29.90,West,263,0.0,0.0,98,0.11,,,0.25,0.0,meteohub,2013-01-07 14:30:00,
2013-01-07 06:35:00,32.5,32.4,29.90,West,263,0.0,0.0,99,0.11,,,0.26,0.0,meteohub,2013-01-07 14:35:00,
2013-01-07 06:40:00,32.5,32.4,29.90,West,263,0.0,0.0,99,0.12,,,0.28,0.0,meteohub,2013-01-07 14:40:00,
2013-01-07 06:45:00,32.5,32.4,29.90,West,263,0.0,0.0,99,0.12,,,0.29,0.0,meteohub,2013-01-07 14:45:00,
2013-01-07 06:50:00,32.5,32.4,29.90,West,263,0.0,0.0,99,0.12,,,0.30,0.0,meteohub,2013-01-07 14:50:00,
2013-01-07 06:56:00,32.5,32.4,29.89,West,263,0.0,0.0,99,0.11,,,0.30,0.0,meteohub,2013-01-07 14:56:00,
2013-01-07 07:01:00,32.5,32.4,29.90,West,263,0.0,0.0,99,0.11,,,0.31,0.0,meteohub,2013-01-07 15:01:00,
2013-01-07 07:06:00,32.5,32.4,29.90,West,263,0.0,0.0,99,0.12,,,0.33,0.0,meteohub,2013-01-07 15:06:00,
2013-01-07 07:11:00,32.5,32.4,29.89,West,263,0.0,0.0,99,0.13,,,0.35,0.0,meteohub,2013-01-07 15:11:00,
2013-01-07 07:16:00,32.5,32.4,29.89,West,263,0.0,0.0,99,0.13,,,0.36,0.0,meteohub,2013-01-07 15:16:00,
2013-01-07 07:21:00,32.5,32.4,29.89,West,263,0.0,0.0,99,0.14,,,0.38,0.0,meteohub,2013-01-07 15:21:00,
2013-01-07 07:26:00,32.4,32.2,29.89,West,263,0.0,0.0,99,0.13,,,0.38,0.0,meteohub,2013-01-07 15:26:00,
2013-01-07 07:31:00,32.4,32.2,29.89,West,263,0.0,0.0,99,0.13,,,0.39,0.0,meteohub,2013-01-07 15:31:00,
2013-01-07 07:36:00,32.4,32.2,29.89,West,263,0.0,0.0,99,0.14,,,0.41,0.0,meteohub,2013-01-07 15:36:00,
2013-01-07 07:41:00,32.4,32.2,29.89,West,263,0.0,0.0,99,0.14,,,0.42,0.0,meteohub,2013-01-07 15:41:00,
2013-01-07 07:46:00,32.4,32.2,29.89,West,263,0.0,0.0,99,0.15,,,0.44,0.0,meteohub,2013-01-07 15:46:00,
2013-01-07 07:51:00,32.4,32.2,29.90,West,263,0.0,0.0,99,0.16,,,0.46,0.0,meteohub,2013-01-07 15:51:00,
2013-01-07 07:56:00,32.5,32.4,29.89,West,263,0.0,0.0,99,0.17,,,0.47,0.0,meteohub,2013-01-07 15:56:00,
2013-01-07 08:01:00,32.5,32.4,29.89,West,263,0.0,0.0,99,0.17,,,0.49,0.0,meteohub,2013-01-07 16:01:00,
2013-01-07 08:06:00,32.5,32.4,29.89,West,263,0.0,0.0,99,0.17,,,0.51,0.0,meteohub,2013-01-07 16:06:00,
2013-01-07 08:11:00,32.5,32.4,29.89,West,263,0.0,0.0,99,0.17,,,0.52,0.0,meteohub,2013-01-07 16:11:00,
2013-01-07 08:16:00,32.5,32.4,29.89,West,263,0.0,0.0,99,0.17,,,0.54,0.0,meteohub,2013-01-07 16:16:00,
2013-01-07 08:21:00,32.5,32.4,29.88,West,263,0.0,0.0,99,0.17,,,0.55,0.0,meteohub,2013-01-07 16:21:00,
2013-01-07 08:26:00,32.5,32.4,29.89,West,263,0.0,0.0,99,0.19,,,0.57,0.0,meteohub,2013-01-07 16:26:00,
2013-01-07 08:31:00,32.5,32.4,29.88,West,263,0.0,0.0,99,0.18,,,0.58,0.0,meteohub,2013-01-07 16:31:00,
2013-01-07 08:36:00,32.5,32.4,29.89,West,263,0.0,0.0,99,0.18,,,0.59,0.0,meteohub,2013-01-07 16:36:00,
2013-01-07 08:41:00,32.5,32.4,29.89,West,263,0.0,0.0,99,0.18,,,0.61,0.0,meteohub,2013-01-07 16:41:00,
2013-01-07 08:46:00,32.5,32.4,29.89,West,263,0.0,0.0,99,0.17,,,0.62,0.0,meteohub,2013-01-07 16:46:00,
2013-01-07 08:51:00,32.5,32.4,29.89,West,263,0.0,0.0,99,0.15,,,0.62,0.0,meteohub,2013-01-07 16:51:00,
2013-01-07 08:56:00,32.5,32.4,29.89,West,263,0.0,0.0,99,0.16,,,0.64,0.0,meteohub,2013-01-07 16:56:00,
2013-01-07 09:01:00,32.5,32.4,29.88,West,263,0.0,0.0,99,0.15,,,0.65,0.0,meteohub,2013-01-07 17:01:00,
2013-01-07 09:06:00,32.5,32.4,29.89,West,263,0.0,0.0,99,0.15,,,0.66,0.0,meteohub,2013-01-07 17:06:00,
2013-01-07 09:11:00,32.5,32.4,29.90,West,263,0.0,0.0,99,0.14,,,0.67,0.0,meteohub,2013-01-07 17:11:00,
2013-01-07 09:16:00,32.5,32.4,29.90,West,263,0.0,0.0,99,0.12,,,0.67,0.0,meteohub,2013-01-07 17:16:00,
2013-01-07 09:21:00,32.5,32.4,29.90,West,263,0.0,0.0,99,0.12,,,0.68,0.0,meteohub,2013-01-07 17:21:00,
2013-01-07 09:26:00,32.7,32.5,29.90,West,264,0.0,0.0,99,0.11,,,0.69,0.0,meteohub,2013-01-07 17:26:00,
2013-01-07 09:31:00,32.7,32.5,29.90,West,264,0.0,1.0,99,0.11,,,0.70,0.0,meteohub,2013-01-07 17:31:00,
2013-01-07 09:37:00,32.7,32.5,29.91,West,264,0.0,1.0,99,0.10,,,0.70,0.0,meteohub,2013-01-07 17:37:00,
2013-01-07 09:42:00,32.7,32.5,29.91,West,264,0.0,0.0,99,0.10,,,0.71,0.0,meteohub,2013-01-07 17:42:00,
2013-01-07 09:47:00,32.7,32.5,29.90,West,264,0.0,0.0,99,0.10,,,0.72,0.0,meteohub,2013-01-07 17:47:00,
2013-01-07 09:52:00,32.7,32.5,29.90,West,264,0.0,0.0,99,0.10,,,0.73,0.0,meteohub,2013-01-07 17:52:00,
2013-01-07 09:57:00,32.7,32.5,29.90,West,264,0.0,0.0,99,0.11,,,0.75,0.0,meteohub,2013-01-07 17:57:00,
2013-01-07 10:02:00,32.7,32.5,29.91,West,264,0.0,0.0,99,0.10,,,0.75,5.0,meteohub,2013-01-07 18:02:00,
2013-01-07 10:07:00,32.7,32.5,29.90,West,264,0.0,0.0,99,0.10,,,0.76,0.0,meteohub,2013-01-07 18:07:00,
2013-01-07 10:12:00,32.7,32.5,29.90,West,264,0.0,0.0,99,0.10,,,0.77,5.0,meteohub,2013-01-07 18:12:00,
2013-01-07 10:17:00,32.7,32.5,29.91,West,264,0.0,0.0,99,0.10,,,0.78,11.0,meteohub,2013-01-07 18:17:00,
2013-01-07 10:22:00,32.9,32.7,29.91,West,264,0.0,0.0,99,0.09,,,0.78,9.0,meteohub,2013-01-07 18:22:00,
2013-01-07 10:27:00,32.9,32.7,29.91,West,264,0.0,0.0,99,0.10,,,0.79,5.0,meteohub,2013-01-07 18:27:00,
2013-01-07 10:32:00,32.9,32.7,29.92,West,264,0.0,0.0,99,0.09,,,0.79,5.0,meteohub,2013-01-07 18:32:00,
2013-01-07 10:37:00,32.9,32.7,29.91,West,264,0.0,0.0,99,0.09,,,0.80,9.0,meteohub,2013-01-07 18:37:00,
2013-01-07 10:42:00,32.9,32.7,29.91,West,264,0.0,0.0,99,0.09,,,0.81,5.0,meteohub,2013-01-07 18:42:00,
2013-01-07 10:47:00,32.9,32.7,29.91,West,264,0.0,0.0,99,0.08,,,0.81,11.0,meteohub,2013-01-07 18:47:00,
2013-01-07 10:52:00,32.9,32.7,29.91,West,264,0.0,0.0,99,0.08,,,0.82,9.0,meteohub,2013-01-07 18:52:00,
2013-01-07 10:57:00,32.9,32.7,29.91,West,274,0.0,0.0,99,0.07,,,0.82,5.0,meteohub,2013-01-07 18:57:00,
2013-01-07 11:02:00,32.9,32.7,29.90,West,274,0.0,0.0,99,0.07,,,0.83,11.0,meteohub,2013-01-07 19:02:00,
2013-01-07 11:07:00,32.9,32.7,29.91,West,274,0.0,0.0,99,0.07,,,0.84,12.0,meteohub,2013-01-07 19:07:00,
2013-01-07 11:12:00,32.9,32.7,29.90,West,274,1.0,0.0,99,0.07,,,0.84,11.0,meteohub,2013-01-07 19:12:00,
2013-01-07 11:17:00,32.9,32.7,29.90,West,274,0.0,2.0,99,0.06,,,0.84,12.0,meteohub,2013-01-07 19:17:00,
2013-01-07 11:22:00,33.1,32.9,29.90,West,274,2.0,2.0,99,0.06,,,0.85,14.0,meteohub,2013-01-07 19:22:00,
2013-01-07 11:27:00,33.1,32.9,29.89,West,274,0.0,2.0,99,0.06,,,0.85,14.0,meteohub,2013-01-07 19:27:00,
2013-01-07 11:32:00,33.1,32.9,29.89,West,274,0.0,2.0,99,0.05,,,0.85,14.0,meteohub,2013-01-07 19:32:00,
2013-01-07 11:37:00,33.1,32.9,29.89,West,274,1.0,3.0,99,0.05,,,0.85,14.0,meteohub,2013-01-07 19:37:00,
2013-01-07 11:42:00,33.1,32.9,29.90,West,274,0.0,3.0,99,0.05,,,0.86,9.0,meteohub,2013-01-07 19:42:00,
2013-01-07 11:47:00,33.1,32.9,29.89,West,274,0.0,4.0,99,0.05,,,0.86,11.0,meteohub,2013-01-07 19:47:00,
2013-01-07 11:52:00,33.1,32.9,29.90,West,274,2.0,4.0,99,0.04,,,0.86,7.0,meteohub,2013-01-07 19:52:00,
2013-01-07 11:57:00,33.1,32.9,29.90,West,274,0.0,3.0,99,0.04,,,0.87,9.0,meteohub,2013-01-07 19:57:00,
2013-01-07 12:02:00,33.1,32.9,29.89,West,274,0.0,3.0,99,0.05,,,0.88,12.0,meteohub,2013-01-07 20:02:00,
2013-01-07 12:07:00,33.1,32.9,29.89,West,274,0.0,3.0,99,0.04,,,0.88,11.0,meteohub,2013-01-07 20:07:00,
2013-01-07 12:12:00,33.1,32.9,29.89,West,274,2.0,3.0,99,0.05,,,0.89,12.0,meteohub,2013-01-07 20:12:00,
2013-01-07 12:17:00,33.3,33.1,29.90,West,274,3.0,3.0,99,0.05,,,0.89,12.0,meteohub,2013-01-07 20:17:00,
2013-01-07 12:22:00,33.3,33.1,29.90,West,274,0.0,4.0,99,0.04,,,0.89,14.0,meteohub,2013-01-07 20:22:00,
2013-01-07 12:27:00,33.4,33.3,29.89,West,274,1.0,4.0,99,0.05,,,0.90,11.0,meteohub,2013-01-07 20:27:00,
2013-01-07 12:32:00,33.4,33.3,29.89,West,274,2.0,4.0,99,0.06,,,0.91,9.0,meteohub,2013-01-07 20:32:00,
2013-01-07 12:37:00,33.3,33.1,29.90,West,274,3.0,3.0,99,0.06,,,0.91,9.0,meteohub,2013-01-07 20:37:00,
2013-01-07 12:42:00,33.3,33.1,29.90,West,265,2.0,4.0,99,0.06,,,0.92,5.0,meteohub,2013-01-07 20:42:00,
2013-01-07 12:47:00,33.3,33.1,29.90,West,265,0.0,5.0,99,0.06,,,0.92,9.0,meteohub,2013-01-07 20:47:00,
2013-01-07 12:52:00,33.3,33.1,29.90,West,265,2.0,5.0,99,0.06,,,0.93,9.0,meteohub,2013-01-07 20:52:00,
2013-01-07 12:57:00,33.3,33.1,29.90,West,265,0.0,5.0,99,0.07,,,0.94,7.0,meteohub,2013-01-07 20:57:00,
2013-01-07 13:02:00,33.3,33.1,29.90,West,265,2.0,3.0,99,0.06,,,0.94,11.0,meteohub,2013-01-07 21:02:00,
2013-01-07 13:07:00,33.3,33.1,29.91,West,265,2.0,3.0,99,0.06,,,0.94,7.0,meteohub,2013-01-07 21:07:00,
2013-01-07 13:12:00,33.3,33.1,29.91,West,265,0.0,3.0,99,0.06,,,0.95,9.0,meteohub,2013-01-07 21:12:00,
2013-01-07 13:17:00,33.4,33.3,29.91,West,265,3.0,3.0,99,0.06,,,0.95,11.0,meteohub,2013-01-07 21:17:00,
2013-01-07 13:22:00,33.3,33.1,29.91,West,265,1.0,4.0,99,0.06,,,0.96,11.0,meteohub,2013-01-07 21:22:00,
2013-01-07 13:27:00,33.3,33.1,29.91,West,269,2.0,4.0,99,0.08,,,0.98,12.0,meteohub,2013-01-07 21:27:00,
2013-01-07 13:32:00,33.3,33.1,29.91,West,269,2.0,4.0,99,0.07,,,0.98,11.0,meteohub,2013-01-07 21:32:00,
2013-01-07 13:37:00,33.3,33.1,29.90,West,269,1.0,4.0,99,0.08,,,0.99,11.0,meteohub,2013-01-07 21:37:00,
2013-01-07 13:42:00,33.3,33.1,29.91,West,277,3.0,4.0,99,0.07,,,0.99,9.0,meteohub,2013-01-07 21:42:00,
2013-01-07 13:47:00,33.3,33.1,29.91,West,276,2.0,4.0,99,0.07,,,1.00,11.0,meteohub,2013-01-07 21:47:00,
2013-01-07 13:52:00,33.4,33.3,29.92,West,276,2.0,5.0,99,0.06,,,1.00,9.0,meteohub,2013-01-07 21:52:00,
2013-01-07 13:57:00,33.4,33.3,29.92,West,277,3.0,5.0,99,0.07,,,1.01,9.0,meteohub,2013-01-07 21:57:00,
2013-01-07 14:03:00,33.4,33.3,29.92,West,280,0.0,4.0,99,0.07,,,1.01,7.0,meteohub,2013-01-07 22:03:00,
2013-01-07 14:08:00,33.4,33.3,29.92,West,280,2.0,4.0,99,0.08,,,1.02,7.0,meteohub,2013-01-07 22:08:00,
2013-01-07 14:13:00,33.4,33.3,29.92,West,279,4.0,4.0,99,0.07,,,1.02,7.0,meteohub,2013-01-07 22:13:00,
2013-01-07 14:18:00,33.4,33.3,29.92,West,275,2.0,4.0,99,0.07,,,1.03,7.0,meteohub,2013-01-07 22:18:00,
2013-01-07 14:23:00,33.4,33.3,29.91,West,275,2.0,5.0,99,0.06,,,1.03,7.0,meteohub,2013-01-07 22:23:00,
2013-01-07 14:28:00,33.4,33.3,29.92,West,275,0.0,5.0,99,0.05,,,1.03,7.0,meteohub,2013-01-07 22:28:00,
2013-01-07 14:33:00,33.4,33.3,29.92,West,275,1.0,5.0,99,0.06,,,1.04,11.0,meteohub,2013-01-07 22:33:00,
2013-01-07 14:38:00,33.4,33.3,29.92,West,281,4.0,4.0,99,0.05,,,1.04,14.0,meteohub,2013-01-07 22:38:00,
2013-01-07 14:43:00,33.4,33.3,29.91,West,275,9.0,9.0,99,0.06,,,1.05,16.0,meteohub,2013-01-07 22:43:00,
2013-01-07 14:48:00,33.4,33.3,29.92,West,276,5.0,10.0,99,0.05,,,1.05,12.0,meteohub,2013-01-07 22:48:00,
2013-01-07 14:53:00,33.4,33.3,29.93,West,259,1.0,11.0,99,0.04,,,1.05,16.0,meteohub,2013-01-07 22:53:00,
2013-01-07 14:58:00,33.4,33.3,29.93,West,259,3.0,11.0,99,0.04,,,1.05,21.0,meteohub,2013-01-07 22:58:00,
2013-01-07 15:03:00,33.4,33.3,29.93,NW,316,2.0,11.0,99,0.04,,,1.06,19.0,meteohub,2013-01-07 23:03:00,
2013-01-07 15:08:00,33.4,33.3,29.93,NW,316,2.0,4.0,99,0.04,,,1.06,23.0,meteohub,2013-01-07 23:08:00,
2013-01-07 15:13:00,33.4,33.3,29.93,NW,316,1.0,4.0,99,0.04,,,1.06,16.0,meteohub,2013-01-07 23:13:00,
2013-01-07 15:18:00,33.4,33.3,29.94,NW,316,0.0,4.0,99,0.03,,,1.06,14.0,meteohub,2013-01-07 23:18:00,
2013-01-07 15:23:00,33.4,33.3,29.94,West,273,2.0,4.0,99,0.03,,,1.06,12.0,meteohub,2013-01-07 23:23:00,
2013-01-07 15:28:00,33.6,33.4,29.94,West,273,2.0,6.0,99,0.02,,,1.06,11.0,meteohub,2013-01-07 23:28:00,
2013-01-07 15:33:00,33.4,33.3,29.94,West,273,4.0,6.0,99,0.02,,,1.06,11.0,meteohub,2013-01-07 23:33:00,
2013-01-07 15:38:00,33.4,33.3,29.94,WNW,294,3.0,6.0,99,0.01,,,1.06,5.0,meteohub,2013-01-07 23:38:00,
2013-01-07 15:43:00,33.4,33.3,29.95,SW,229,3.0,5.0,99,0.01,,,1.06,0.0,meteohub,2013-01-07 23:43:00,
2013-01-07 15:48:00,33.6,33.4,29.95,WNW,292,1.0,7.0,99,0.01,,,1.06,0.0,meteohub,2013-01-07 23:48:00,
2013-01-07 15:53:00,33.6,33.4,29.96,West,277,5.0,7.0,99,0.01,,,1.06,0.0,meteohub,2013-01-07 23:53:00,
2013-01-07 15:58:00,33.8,33.6,29.96,WNW,286,5.0,7.0,99,0.01,,,1.06,5.0,meteohub,2013-01-07 23:58:00,
2013-01-07 16:03:00,34.0,33.8,29.96,West,281,3.0,7.0,99,0.01,,,1.07,0.0,meteohub,2013-01-08 00:03:00,
2013-01-07 16:08:00,34.2,34.0,29.96,WNW,299,2.0,7.0,99,0.01,,,1.07,0.0,meteohub,2013-01-08 00:08:00,
2013-01-07 16:13:00,33.8,33.6,29.96,West,279,5.0,7.0,99,0.01,,,1.07,0.0,meteohub,2013-01-08 00:13:00,
2013-01-07 16:18:00,33.8,33.6,29.97,WNW,282,5.0,7.0,99,0.01,,,1.07,0.0,meteohub,2013-01-08 00:18:00,
2013-01-07 16:23:00,34.0,33.8,29.97,NW,313,2.0,7.0,99,0.01,,,1.07,0.0,meteohub,2013-01-08 00:23:00,
2013-01-07 16:29:00,34.2,34.0,29.97,West,263,3.0,6.0,99,0.02,,,1.08,0.0,meteohub,2013-01-08 00:29:00,
2013-01-07 16:34:00,34.3,34.2,29.97,West,273,2.0,6.0,99,0.02,,,1.08,0.0,meteohub,2013-01-08 00:34:00,
2013-01-07 16:39:00,34.2,34.0,29.97,West,277,3.0,6.0,99,0.02,,,1.08,0.0,meteohub,2013-01-08 00:39:00,
2013-01-07 16:44:00,34.2,34.0,29.97,WNW,284,7.0,9.0,99,0.02,,,1.08,0.0,meteohub,2013-01-08 00:44:00,
2013-01-07 16:49:00,34.2,34.0,29.98,SW,224,3.0,9.0,99,0.02,,,1.08,0.0,meteohub,2013-01-08 00:49:00,
2013-01-07 16:54:00,34.0,33.8,29.98,WNW,292,3.0,9.0,99,0.02,,,1.08,0.0,meteohub,2013-01-08 00:54:00,
2013-01-07 16:59:00,34.0,33.8,29.98,West,263,4.0,9.0,99,0.03,,,1.09,0.0,meteohub,2013-01-08 00:59:00,
2013-01-07 17:04:00,34.2,34.0,29.98,SW,230,7.0,7.0,99,0.02,,,1.09,0.0,meteohub,2013-01-08 01:04:00,
2013-01-07 17:09:00,34.2,34.0,29.98,WNW,300,2.0,9.0,99,0.02,,,1.09,0.0,meteohub,2013-01-08 01:09:00,
2013-01-07 17:14:00,34.3,34.2,29.98,West,281,2.0,12.0,99,0.03,,,1.10,0.0,meteohub,2013-01-08 01:14:00,
2013-01-07 17:19:00,34.3,34.2,29.97,WSW,241,2.0,12.0,99,0.03,,,1.10,0.0,meteohub,2013-01-08 01:19:00,
2013-01-07 17:24:00,35.1,34.9,29.97,SW,234,6.0,11.0,99,0.03,,,1.10,0.0,meteohub,2013-01-08 01:24:00,
2013-01-07 17:29:00,34.9,34.7,29.98,West,271,6.0,11.0,99,0.02,,,1.10,0.0,meteohub,2013-01-08 01:29:00,
2013-01-07 17:34:00,34.9,34.7,29.98,WSW,249,4.0,11.0,99,0.02,,,1.10,0.0,meteohub,2013-01-08 01:34:00,
2013-01-07 17:39:00,35.6,35.6,29.98,WSW,244,6.0,11.0,100,0.02,,,1.10,0.0,meteohub,2013-01-08 01:39:00,
2013-01-07 17:44:00,37.2,37.2,29.97,WSW,240,5.0,12.0,100,0.02,,,1.10,0.0,meteohub,2013-01-08 01:44:00,
2013-01-07 17:49:00,37.8,37.8,29.97,WSW,240,9.0,14.0,100,0.02,,,1.10,0.0,meteohub,2013-01-08 01:49:00,
2013-01-07 17:54:00,38.7,38.7,29.98,WSW,246,6.0,14.0,100,0.01,,,1.10,0.0,meteohub,2013-01-08 01:54:00,
2013-01-07 17:59:00,39.6,39.6,29.98,WSW,254,4.0,14.0,100,0.01,,,1.10,0.0,meteohub,2013-01-08 01:59:00,
2013-01-07 18:04:00,39.7,39.7,29.99,WSW,246,7.0,15.0,100,0.01,,,1.10,0.0,meteohub,2013-01-08 02:04:00,
2013-01-07 18:09:00,40.3,40.3,29.99,West,275,6.0,15.0,100,0.01,,,1.10,0.0,meteohub,2013-01-08 02:09:00,
2013-01-07 18:14:00,40.6,40.6,29.99,WSW,253,5.0,17.0,100,0.00,,,1.10,0.0,meteohub,2013-01-08 02:14:00,
2013-01-07 18:19:00,40.6,40.6,30.00,SW,232,10.0,17.0,100,0.00,,,1.10,0.0,meteohub,2013-01-08 02:19:00,
2013-01-07 18:24:00,40.8,40.3,29.99,WNW,295,8.0,17.0,98,0.00,,,1.10,0.0,meteohub,2013-01-08 02:24:00,
2013-01-07 18:29:00,40.6,39.9,30.00,WNW,282,7.0,18.0,97,0.00,,,1.10,0.0,meteohub,2013-01-08 02:29:00,
2013-01-07 18:34:00,40.3,38.7,30.00,WSW,239,9.0,18.0,94,0.00,,,1.10,0.0,meteohub,2013-01-08 02:34:00,
2013-01-07 18:39:00,40.8,39.2,30.01,SW,234,6.0,17.0,94,0.00,,,1.10,0.0,meteohub,2013-01-08 02:39:00,
2013-01-07 18:45:00,41.2,39.4,30.02,SW,232,7.0,17.0,93,0.00,,,1.10,0.0,meteohub,2013-01-08 02:45:00,
2013-01-07 18:50:00,40.8,39.0,30.01,WNW,282,6.0,17.0,93,0.00,,,1.10,0.0,meteohub,2013-01-08 02:50:00,
2013-01-07 18:55:00,40.6,38.8,30.02,WSW,242,9.0,15.0,93,0.00,,,1.10,0.0,meteohub,2013-01-08 02:55:00,
2013-01-07 19:00:00,40.3,38.5,30.03,SW,232,5.0,12.0,93,0.00,,,1.10,0.0,meteohub,2013-01-08 03:00:00,
2013-01-07 19:05:00,39.7,37.9,30.02,SW,230,6.0,13.0,93,0.00,,,1.10,0.0,meteohub,2013-01-08 03:05:00,
2013-01-07 19:10:00,39.6,37.9,30.02,West,272,9.0,13.0,94,0.00,,,1.11,0.0,meteohub,2013-01-08 03:10:00,
2013-01-07 19:15:00,39.6,37.9,30.02,WSW,250,5.0,13.0,94,0.01,,,1.11,0.0,meteohub,2013-01-08 03:15:00,
2013-01-07 19:20:00,38.8,37.0,30.03,West,280,5.0,13.0,93,0.01,,,1.11,0.0,meteohub,2013-01-08 03:20:00,
2013-01-07 19:25:00,38.8,37.6,30.03,WSW,242,10.0,11.0,95,0.01,,,1.11,0.0,meteohub,2013-01-08 03:25:00,
2013-01-07 19:30:00,39.6,38.3,30.03,West,273,6.0,12.0,95,0.01,,,1.11,0.0,meteohub,2013-01-08 03:30:00,
2013-01-07 19:35:00,39.6,38.3,30.03,West,272,6.0,15.0,95,0.02,,,1.12,0.0,meteohub,2013-01-08 03:35:00,
2013-01-07 19:40:00,39.6,37.9,30.02,WSW,254,7.0,15.0,94,0.02,,,1.12,0.0,meteohub,2013-01-08 03:40:00,
2013-01-07 19:45:00,39.4,37.8,30.03,WSW,250,6.0,10.0,94,0.02,,,1.12,0.0,meteohub,2013-01-08 03:45:00,
2013-01-07 19:50:00,39.6,38.3,30.03,WSW,257,5.0,10.0,95,0.02,,,1.12,0.0,meteohub,2013-01-08 03:50:00,
2013-01-07 19:55:00,39.4,38.1,30.04,WNW,284,6.0,10.0,95,0.02,,,1.12,0.0,meteohub,2013-01-08 03:55:00,
2013-01-07 20:00:00,38.8,37.2,30.04,West,267,4.0,11.0,94,0.02,,,1.12,0.0,meteohub,2013-01-08 04:00:00,
2013-01-07 20:05:00,38.8,37.6,30.04,West,272,6.0,11.0,95,0.02,,,1.12,0.0,meteohub,2013-01-08 04:05:00,
2013-01-07 20:10:00,38.8,37.6,30.04,West,261,5.0,11.0,95,0.01,,,1.12,0.0,meteohub,2013-01-08 04:10:00,
2013-01-07 20:15:00,38.5,37.2,30.04,SW,228,2.0,10.0,95,0.01,,,1.12,0.0,meteohub,2013-01-08 04:15:00,
2013-01-07 20:20:00,38.7,37.6,30.04,West,275,5.0,11.0,96,0.01,,,1.12,0.0,meteohub,2013-01-08 04:20:00,
2013-01-07 20:25:00,38.3,37.0,30.04,West,279,4.0,11.0,95,0.01,,,1.12,0.0,meteohub,2013-01-08 04:25:00,
2013-01-07 20:30:00,38.1,37.0,30.06,West,272,3.0,7.0,96,0.02,,,1.13,0.0,meteohub,2013-01-08 04:30:00,
2013-01-07 20:35:00,37.9,36.7,30.06,WSW,248,4.0,7.0,95,0.01,,,1.13,0.0,meteohub,2013-01-08 04:35:00,
2013-01-07 20:40:00,37.9,36.9,30.06,WNW,282,4.0,7.0,96,0.01,,,1.13,0.0,meteohub,2013-01-08 04:40:00,
2013-01-07 20:45:00,37.8,36.7,30.06,West,275,4.0,7.0,96,0.01,,,1.13,0.0,meteohub,2013-01-08 04:45:00,
2013-01-07 20:50:00,37.8,36.7,30.07,West,275,1.0,6.0,96,0.01,,,1.13,0.0,meteohub,2013-01-08 04:50:00,
2013-01-07 20:55:00,37.6,36.5,30.07,West,281,3.0,6.0,96,0.01,,,1.13,0.0,meteohub,2013-01-08 04:55:00,
2013-01-07 21:00:00,37.8,37.0,30.08,WNW,282,4.0,5.0,97,0.02,,,1.14,0.0,meteohub,2013-01-08 05:00:00,
2013-01-07 21:01:00,37.8,37.0,30.08,WNW,282,3.0,5.0,97,0.02,,,1.14,0.0,meteohub,2013-01-08 05:01:00,
2013-01-07 21:02:00,37.8,37.0,30.08,WNW,282,4.0,5.0,97,0.02,,,1.14,0.0,meteohub,2013-01-08 05:02:00,
2013-01-07 21:05:00,37.8,37.0,30.08,WNW,282,1.0,5.0,97,0.02,,,1.14,0.0,meteohub,2013-01-08 05:05:00,
2013-01-07 21:10:00,37.6,36.9,30.08,WNW,282,4.0,5.0,97,0.02,,,1.14,0.0,meteohub,2013-01-08 05:10:00,
2013-01-07 21:15:00,37.2,36.5,30.08,WNW,282,3.0,5.0,97,0.02,,,1.14,0.0,meteohub,2013-01-08 05:15:00,
2013-01-07 21:20:00,37.2,36.5,30.09,WNW,282,2.0,5.0,97,0.02,,,1.14,0.0,meteohub,2013-01-08 05:20:00,
2013-01-07 21:25:00,37.2,36.5,30.09,WNW,282,3.0,5.0,97,0.02,,,1.14,0.0,meteohub,2013-01-08 05:25:00,
2013-01-07 21:30:00,37.2,36.5,30.09,WNW,282,1.0,4.0,97,0.02,,,1.14,0.0,meteohub,2013-01-08 05:30:00,
2013-01-07 21:35:00,37.2,36.5,30.10,WNW,282,3.0,4.0,97,0.01,,,1.14,0.0,meteohub,2013-01-08 05:35:00,
2013-01-07 21:40:00,37.2,36.7,30.10,WNW,282,2.0,4.0,98,0.01,,,1.14,0.0,meteohub,2013-01-08 05:40:00,
2013-01-07 21:45:00,37.0,36.5,30.10,WNW,282,0.0,5.0,98,0.01,,,1.14,0.0,meteohub,2013-01-08 05:45:00,
2013-01-07 21:50:00,36.9,36.3,30.11,WNW,282,2.0,5.0,98,0.01,,,1.14,0.0,meteohub,2013-01-08 05:50:00,
2013-01-07 21:55:00,36.9,36.3,30.11,WNW,282,0.0,3.0,98,0.01,,,1.14,0.0,meteohub,2013-01-08 05:55:00,
2013-01-07 22:00:00,37.0,36.5,30.11,West,273,2.0,6.0,98,0.00,,,1.14,0.0,meteohub,2013-01-08 06:00:00,
2013-01-07 22:05:00,37.0,36.5,30.11,West,272,1.0,6.0,98,0.00,,,1.14,0.0,meteohub,2013-01-08 06:05:00,
2013-01-07 22:10:00,36.9,36.3,30.12,West,272,0.0,6.0,98,0.00,,,1.14,0.0,meteohub,2013-01-08 06:10:00,
2013-01-07 22:15:00,36.9,36.3,30.12,West,272,0.0,4.0,98,0.00,,,1.14,0.0,meteohub,2013-01-08 06:15:00,
2013-01-07 22:20:00,36.9,36.3,30.12,West,272,2.0,4.0,98,0.00,,,1.14,0.0,meteohub,2013-01-08 06:20:00,
2013-01-07 22:25:00,36.9,36.3,30.13,West,272,0.0,3.0,98,0.00,,,1.14,0.0,meteohub,2013-01-08 06:25:00,
2013-01-07 22:30:00,36.9,36.3,30.13,West,272,0.0,3.0,98,0.00,,,1.14,0.0,meteohub,2013-01-08 06:30:00,
2013-01-07 22:35:00,36.9,36.3,30.13,West,272,1.0,4.0,98,0.00,,,1.14,0.0,meteohub,2013-01-08 06:35:00,
2013-01-07 22:40:00,36.7,36.1,30.13,West,272,0.0,4.0,98,0.00,,,1.14,0.0,meteohub,2013-01-08 06:40:00,
2013-01-07 22:46:00,36.7,36.1,30.13,West,272,0.0,3.0,98,0.00,,,1.14,0.0,meteohub,2013-01-08 06:46:00,
2013-01-07 22:51:00,36.7,36.1,30.13,West,272,0.0,3.0,98,0.00,,,1.14,0.0,meteohub,2013-01-08 06:51:00,
2013-01-07 22:56:00,36.7,36.1,30.13,West,272,0.0,2.0,98,0.00,,,1.14,0.0,meteohub,2013-01-08 06:56:00,
2013-01-07 23:01:00,36.7,36.1,30.13,West,272,0.0,2.0,98,0.00,,,1.14,0.0,meteohub,2013-01-08 07:01:00,
2013-01-07 23:06:00,36.7,36.1,30.13,West,272,0.0,2.0,98,0.00,,,1.14,0.0,meteohub,2013-01-08 07:06:00,
2013-01-07 23:11:00,36.7,36.1,30.14,West,272,2.0,2.0,98,0.00,,,1.14,0.0,meteohub,2013-01-08 07:11:00,
2013-01-07 23:16:00,36.7,36.1,30.14,West,272,0.0,3.0,98,0.00,,,1.14,0.0,meteohub,2013-01-08 07:16:00,
2013-01-07 23:21:00,36.5,36.0,30.14,West,272,3.0,3.0,98,0.00,,,1.14,0.0,meteohub,2013-01-08 07:21:00,
2013-01-07 23:26:00,36.7,36.1,30.15,West,272,0.0,4.0,98,0.00,,,1.14,0.0,meteohub,2013-01-08 07:26:00,
2013-01-07 23:31:00,36.9,36.3,30.14,West,272,1.0,4.0,98,0.00,,,1.14,0.0,meteohub,2013-01-08 07:31:00,
2013-01-07 23:36:00,36.9,36.3,30.14,West,272,2.0,4.0,98,0.00,,,1.14,0.0,meteohub,2013-01-08 07:36:00,
2013-01-07 23:41:00,36.7,36.1,30.15,West,272,0.0,3.0,98,0.00,,,1.14,0.0,meteohub,2013-01-08 07:41:00,
2013-01-07 23:46:00,36.7,36.1,30.15,West,272,0.0,3.0,98,0.00,,,1.14,0.0,meteohub,2013-01-08 07:46:00,
2013-01-07 23:51:00,36.7,36.1,30.15,West,272,0.0,2.0,98,0.00,,,1.14,0.0,meteohub,2013-01-08 07:51:00,
2013-01-07 23:56:00,36.7,36.1,30.15,West,272,0.0,1.0,98,0.00,,,1.14,0.0,meteohub,2013-01-08 07:56:00,